Time;durP1;ratioP1;P1;durP2;ratioP2;P2;SDS_P1;SDS_P2;PMS_P1;PMS_P2;Temp;Humidity;BMP_temperature;BMP_pressure;BME280_temperature;BME280_humidity;BME280_pressure;Samples;Min_cycle;Max_cycle;Signal;HPM_P1;HPM_P2
2022/12/19 00:01:36;;;;;;;3.15;2.42;;;;;;;14.40;42.28;94321.94;4986857;28;20050;-89
2022/12/19 00:04:03;;;;;;;3.75;2.30;;;;;;;14.43;42.04;94320.31;5003695;28;20039;-90
2022/12/19 00:06:29;;;;;;;3.28;2.45;;;;;;;14.42;41.95;94316.81;5018654;28;20050;-89
2022/12/19 00:08:54;;;;;;;2.67;2.13;;;;;;;14.39;42.29;94318.47;5020035;28;20035;-88
2022/12/19 00:11:21;;;;;;;3.10;2.35;;;;;;;14.45;41.73;94323.31;4985471;28;20047;-88
2022/12/19 00:13:47;;;;;;;2.88;2.47;;;;;;;14.38;42.31;94321.66;5019340;28;20034;-89
2022/12/19 00:16:14;;;;;;;2.90;2.40;;;;;;;14.37;41.93;94318.19;5003326;28;20046;-89
2022/12/19 00:18:40;;;;;;;3.97;2.50;;;;;;;14.40;42.08;94316.50;5015931;28;20043;-88
2022/12/19 00:21:05;;;;;;;3.58;2.55;;;;;;;14.44;41.88;94308.22;5003038;28;20532;-88
2022/12/19 00:23:32;;;;;;;3.30;2.35;;;;;;;14.45;41.86;94302.31;4986024;28;20035;-89
2022/12/19 00:26:23;;;;;;;3.08;2.33;;;;;;;14.44;42.02;94310.94;4986115;28;20038;-89
2022/12/19 00:28:51;;;;;;;2.65;2.20;;;;;;;14.41;42.23;94307.16;4985934;28;20572;-89
2022/12/19 00:31:17;;;;;;;3.75;2.30;;;;;;;14.37;41.96;94293.69;5002332;28;20122;-88
2022/12/19 00:33:42;;;;;;;3.97;2.65;;;;;;;14.44;41.79;94302.75;5019280;28;20042;-88
2022/12/19 00:36:13;;;;;;;3.47;2.80;;;;;;;14.47;42.17;94299.13;4985498;28;20027;-89
2022/12/19 00:38:38;;;;;;;3.13;2.22;;;;;;;14.47;41.90;94304.56;4986293;28;20038;-88
2022/12/19 00:41:14;;;;;;;3.22;2.38;;;;;;;14.43;42.44;94304.72;5001619;28;20039;-89
2022/12/19 00:43:40;;;;;;;2.78;1.92;;;;;;;14.44;42.13;94303.53;4985867;28;20130;-88
2022/12/19 00:46:07;;;;;;;2.80;2.00;;;;;;;14.41;42.15;94301.72;4986126;28;20117;-88
2022/12/19 00:48:33;;;;;;;2.95;2.00;;;;;;;14.39;42.42;94309.56;5002190;28;20134;-88
2022/12/19 00:51:00;;;;;;;3.80;2.60;;;;;;;14.44;42.10;94306.25;4970473;28;20133;-89
2022/12/19 00:53:25;;;;;;;2.88;2.03;;;;;;;14.40;42.29;94290.09;4985826;28;20460;-88
2022/12/19 00:55:51;;;;;;;4.05;2.45;;;;;;;14.42;42.15;94294.31;5002834;28;20108;-88
2022/12/19 00:58:16;;;;;;;3.13;2.30;;;;;;;14.38;42.20;94281.59;4982759;28;20090;-88
2022/12/19 01:00:42;;;;;;;2.47;2.17;;;;;;;14.37;42.34;94282.06;4998869;28;20038;-89
2022/12/19 01:03:07;;;;;;;3.45;2.50;;;;;;;14.36;42.32;94294.91;4969181;28;20047;-89
2022/12/19 01:05:32;;;;;;;2.38;2.00;;;;;;;14.36;42.42;94286.75;4986169;28;20121;-88
2022/12/19 01:07:58;;;;;;;3.25;2.15;;;;;;;14.38;42.43;94286.28;4986044;28;20034;-89
2022/12/19 01:10:23;;;;;;;3.20;2.10;;;;;;;14.35;42.56;94282.53;4984866;28;20043;-89
2022/12/19 01:12:48;;;;;;;2.30;1.90;;;;;;;14.38;42.74;94283.56;4985334;28;20393;-88
2022/12/19 01:15:19;;;;;;;3.35;2.38;;;;;;;14.37;42.34;94274.66;4985321;28;20497;-88
2022/12/19 01:17:45;;;;;;;3.10;2.05;;;;;;;14.36;42.22;94280.56;5011453;28;20077;-88
2022/12/19 01:20:14;;;;;;;2.08;1.88;;;;;;;14.38;42.10;94280.84;5004739;28;20056;-89
2022/12/19 01:22:40;;;;;;;1.92;1.70;;;;;;;14.34;42.70;94288.44;5001537;28;20042;-89
2022/12/19 01:25:06;;;;;;;3.58;2.08;;;;;;;14.33;42.88;94278.75;5001293;28;20043;-88
2022/12/19 01:27:31;;;;;;;2.53;2.13;;;;;;;14.37;42.25;94277.38;4985611;28;20045;-88
2022/12/19 01:29:56;;;;;;;2.92;2.30;;;;;;;14.32;42.70;94267.13;4985665;28;20062;-88
2022/12/19 01:32:22;;;;;;;2.80;2.28;;;;;;;14.35;42.31;94263.50;4984873;28;20046;-89
2022/12/19 01:34:48;;;;;;;3.60;1.90;;;;;;;14.34;42.36;94272.88;4969166;28;20039;-88
2022/12/19 01:37:16;;;;;;;2.33;2.13;;;;;;;14.35;42.39;94271.66;5027466;28;20166;-88
2022/12/19 01:39:41;;;;;;;2.40;1.80;;;;;;;14.39;41.81;94258.63;5000685;28;20042;-88
2022/12/19 01:42:17;;;;;;;3.08;2.20;;;;;;;14.40;42.19;94253.94;4985155;28;20568;-88
2022/12/19 01:45:07;;;;;;;3.03;2.08;;;;;;;14.46;41.67;94251.38;4968893;28;20039;-88
2022/12/19 01:47:40;;;;;;;2.83;2.00;;;;;;;14.40;42.49;94237.63;5000711;28;20051;-90
2022/12/19 01:50:10;;;;;;;2.33;1.60;;;;;;;14.38;42.12;94235.38;5017297;28;20115;-89
2022/12/19 01:52:35;;;;;;;2.30;1.75;;;;;;;14.38;42.59;94246.25;5017523;28;20047;-88
2022/12/19 01:55:00;;;;;;;2.05;1.75;;;;;;;14.46;41.49;94237.78;5004049;28;20487;-88
2022/12/19 01:57:26;;;;;;;2.53;1.85;;;;;;;14.39;42.05;94241.56;4984805;28;20043;-89
2022/12/19 01:59:53;;;;;;;2.70;2.15;;;;;;;14.37;42.20;94236.59;4985610;28;20038;-89
2022/12/19 02:02:33;;;;;;;2.13;1.85;;;;;;;14.36;42.25;94243.22;4983610;28;20042;-89
2022/12/19 02:05:00;;;;;;;2.45;1.80;;;;;;;14.33;42.54;94238.72;4984622;28;20364;-88
2022/12/19 02:07:25;;;;;;;3.30;1.88;;;;;;;14.41;41.95;94239.16;5000542;28;20043;-88
2022/12/19 02:09:52;;;;;;;2.40;1.63;;;;;;;14.37;42.24;94217.53;5017521;28;20154;-88
2022/12/19 02:12:18;;;;;;;3.10;2.05;;;;;;;14.37;42.45;94228.41;4984271;28;20042;-88
2022/12/19 02:14:43;;;;;;;3.03;2.10;;;;;;;14.37;42.12;94227.66;5001314;28;20042;-89
2022/12/19 02:17:21;;;;;;;2.58;1.70;;;;;;;14.38;42.15;94229.16;4989984;28;20042;-88
2022/12/19 02:20:05;;;;;;;2.78;1.90;;;;;;;14.39;42.50;94231.44;4990321;28;20058;-89
2022/12/19 02:22:46;;;;;;;2.63;1.98;;;;;;;14.38;42.53;94234.63;4969763;28;20081;-88
2022/12/19 02:25:20;;;;;;;3.00;2.00;;;;;;;14.38;42.19;94229.94;4991337;28;20058;-89
2022/12/19 02:27:48;;;;;;;2.67;1.98;;;;;;;14.33;42.18;94222.41;5001649;28;20042;-88
2022/12/19 02:30:16;;;;;;;3.53;2.10;;;;;;;14.40;42.20;94219.38;5003229;28;20050;-88
2022/12/19 02:32:48;;;;;;;2.70;1.70;;;;;;;14.45;42.06;94217.22;4988520;28;20031;-88
2022/12/19 02:35:29;;;;;;;2.30;1.65;;;;;;;14.37;42.70;94203.19;4988463;28;20035;-88
2022/12/19 02:38:02;;;;;;;2.80;2.00;;;;;;;14.36;42.56;94209.84;4970596;28;20167;-88
2022/12/19 02:40:30;;;;;;;3.13;1.80;;;;;;;14.38;42.25;94205.44;5019853;28;20039;-88
2022/12/19 02:42:58;;;;;;;2.03;1.65;;;;;;;14.38;42.60;94210.88;4988280;28;20031;-88
2022/12/19 02:45:24;;;;;;;1.70;1.30;;;;;;;14.35;42.19;94209.09;5004415;28;20109;-89
2022/12/19 02:47:50;;;;;;;2.53;1.83;;;;;;;14.37;42.51;94220.25;5004815;28;20111;-89
2022/12/19 02:50:15;;;;;;;2.70;1.80;;;;;;;14.37;42.16;94212.09;4987679;28;20085;-88
2022/12/19 02:52:43;;;;;;;2.47;1.73;;;;;;;14.37;42.19;94219.50;5005144;28;20126;-88
2022/12/19 02:55:12;;;;;;;1.95;1.63;;;;;;;14.36;42.32;94223.44;5010611;28;20039;-88
2022/12/19 02:57:44;;;;;;;2.65;1.70;;;;;;;14.37;42.39;94227.66;5004835;28;20065;-88
2022/12/19 03:00:15;;;;;;;2.47;1.85;;;;;;;14.36;42.33;94228.88;4972562;28;20038;-88
2022/12/19 03:02:58;;;;;;;2.45;1.88;;;;;;;14.36;42.34;94215.28;5004511;28;20103;-89
2022/12/19 03:05:25;;;;;;;2.72;1.80;;;;;;;14.38;42.16;94223.72;5004313;28;20095;-88
2022/12/19 03:08:00;;;;;;;1.92;1.52;;;;;;;14.39;42.23;94219.78;5020891;28;20042;-89
2022/12/19 03:10:43;;;;;;;2.25;1.80;;;;;;;14.38;42.10;94221.75;5003626;28;20442;-89
2022/12/19 03:13:11;;;;;;;2.75;1.73;;;;;;;14.38;42.31;94226.44;4987229;28;20524;-88
2022/12/19 03:15:37;;;;;;;2.63;1.60;;;;;;;14.38;42.13;94219.03;5020277;28;20226;-88
2022/12/19 03:18:02;;;;;;;2.55;1.95;;;;;;;14.38;42.43;94207.41;5006708;28;20074;-89
2022/12/19 03:20:38;;;;;;;2.45;1.45;;;;;;;14.34;42.63;94210.31;4971839;28;20140;-89
2022/12/19 03:23:03;;;;;;;2.65;1.88;;;;;;;14.32;42.46;94218.19;4986169;28;20043;-88
2022/12/19 03:25:29;;;;;;;1.75;1.30;;;;;;;14.31;42.27;94215.91;4987141;28;20039;-88
2022/12/19 03:27:54;;;;;;;2.58;1.80;;;;;;;14.35;42.32;94198.22;5021555;28;20050;-88
2022/12/19 03:30:20;;;;;;;2.25;1.50;;;;;;;14.32;42.49;94207.28;4987646;28;20034;-89
2022/12/19 03:32:45;;;;;;;2.65;2.10;;;;;;;14.36;42.41;94205.16;5004176;28;20408;-89
2022/12/19 03:35:17;;;;;;;2.17;1.52;;;;;;;14.35;42.54;94216.50;4986774;28;20039;-89
2022/12/19 03:37:42;;;;;;;2.83;1.77;;;;;;;14.34;42.28;94209.56;5030159;28;20516;-88
2022/12/19 03:40:11;;;;;;;1.88;1.10;;;;;;;14.33;42.45;94202.59;5002784;28;20030;-88
2022/12/19 03:45:25;;;;;;;2.47;1.60;;;;;;;14.40;42.48;94196.81;4998218;28;20045;-88
2022/12/19 03:47:54;;;;;;;2.55;1.50;;;;;;;14.36;42.23;94191.56;5020427;28;20035;-89
2022/12/19 03:50:20;;;;;;;1.85;1.60;;;;;;;14.39;42.40;94187.16;5000805;28;20544;-89
2022/12/19 03:52:53;;;;;;;2.08;1.60;;;;;;;14.38;42.23;94196.53;4994094;28;20066;-88
2022/12/19 03:55:39;;;;;;;2.45;1.92;;;;;;;14.43;42.25;94200.63;5020919;28;20038;-89
2022/12/19 03:58:09;;;;;;;1.95;1.30;;;;;;;14.41;42.50;94192.91;5013646;28;20129;-89
2022/12/19 04:00:35;;;;;;;2.90;1.80;;;;;;;14.38;42.23;94196.53;5002792;28;20042;-88
2022/12/19 04:03:01;;;;;;;2.08;1.50;;;;;;;14.42;42.37;94188.97;4987462;28;20557;-88
2022/12/19 04:05:27;;;;;;;2.22;1.50;;;;;;;14.41;41.94;94190.19;5002887;28;20074;-88
2022/12/19 04:07:54;;;;;;;2.08;1.50;;;;;;;14.41;42.45;94190.19;5024234;28;20394;-89
2022/12/19 04:10:21;;;;;;;2.60;1.90;;;;;;;14.42;41.90;94196.38;5019294;28;20043;-88
2022/12/19 04:12:49;;;;;;;2.30;1.50;;;;;;;14.40;42.24;94205.75;4986725;28;20058;-88
2022/12/19 04:15:15;;;;;;;2.67;1.80;;;;;;;14.38;42.32;94200.00;5018667;28;20042;-89
2022/12/19 04:17:51;;;;;;;2.22;1.58;;;;;;;14.38;42.34;94199.25;5008801;28;20042;-88
2022/12/19 04:20:20;;;;;;;1.98;1.40;;;;;;;14.39;42.19;94201.50;4986213;28;20086;-89
2022/12/19 04:23:05;;;;;;;2.25;1.60;;;;;;;14.41;41.86;94209.25;4986459;28;20043;-89
2022/12/19 04:25:34;;;;;;;2.75;1.75;;;;;;;14.42;42.10;94204.56;5017155;28;20058;-89
2022/12/19 04:28:04;;;;;;;2.47;1.60;;;;;;;14.41;42.15;94206.50;5003168;28;20035;-88
2022/12/19 04:30:29;;;;;;;2.58;1.80;;;;;;;14.42;42.06;94202.59;5018900;28;20049;-89
2022/12/19 04:32:55;;;;;;;1.92;1.30;;;;;;;14.38;42.15;94210.13;4986682;28;20039;-89
2022/12/19 04:35:20;;;;;;;2.20;1.65;;;;;;;14.35;42.31;94222.69;5002727;28;20043;-90
2022/12/19 04:37:45;;;;;;;2.35;1.33;;;;;;;14.38;42.23;94219.03;5018543;28;20070;-88
2022/12/19 04:40:11;;;;;;;2.13;1.45;;;;;;;14.46;41.71;94216.75;5002689;28;20668;-89
2022/12/19 04:42:37;;;;;;;1.80;1.50;;;;;;;14.42;41.75;94220.88;4987486;28;20030;-90
2022/12/19 04:45:04;;;;;;;1.85;1.45;;;;;;;14.40;41.46;94222.09;5001954;28;20058;-88
2022/12/19 04:47:29;;;;;;;2.13;1.73;;;;;;;14.31;41.97;94227.56;5018446;28;20039;-88
2022/12/19 04:49:55;;;;;;;4.13;1.73;;;;;;;14.34;41.78;94232.06;4985835;28;20501;-88
2022/12/19 04:52:20;;;;;;;2.40;1.75;;;;;;;14.27;41.83;94218.84;4984036;28;20453;-89
2022/12/19 04:54:46;;;;;;;2.05;1.50;;;;;;;14.29;42.01;94215.66;4993561;28;20096;-88
2022/12/19 04:57:11;;;;;;;2.03;1.50;;;;;;;14.29;42.61;94212.94;5005191;28;20042;-88
2022/12/19 04:59:37;;;;;;;2.38;1.40;;;;;;;14.33;42.11;94206.09;4987226;28;20058;-86
2022/12/19 05:02:02;;;;;;;2.85;1.60;;;;;;;14.33;41.84;94197.16;5017819;28;20050;-89
2022/12/19 05:04:28;;;;;;;6.65;1.58;;;;;;;14.36;42.06;94177.97;4969146;28;20039;-89
2022/12/19 05:06:53;;;;;;;3.75;1.35;;;;;;;14.37;41.76;94184.91;5001311;28;20038;-87
2022/12/19 05:09:18;;;;;;;3.65;1.67;;;;;;;14.36;42.08;94205.16;4985358;28;20038;-88
2022/12/19 05:11:44;;;;;;;8.20;2.15;;;;;;;14.35;41.89;94203.66;5001853;28;20043;-88
2022/12/19 05:14:09;;;;;;;3.75;1.50;;;;;;;14.33;42.34;94208.81;5001088;28;20043;-87
2022/12/19 05:16:35;;;;;;;5.25;1.60;;;;;;;14.37;41.96;94220.25;5002298;28;20043;-88
2022/12/19 05:19:00;;;;;;;2.97;1.45;;;;;;;14.36;42.27;94218.00;4993510;28;20039;-88
2022/12/19 05:21:25;;;;;;;3.30;2.00;;;;;;;14.35;42.17;94246.41;5000931;28;20061;-88
2022/12/19 05:23:51;;;;;;;5.20;1.65;;;;;;;14.36;41.93;94240.50;5019495;28;20144;-87
2022/12/19 05:26:16;;;;;;;2.92;1.70;;;;;;;14.36;41.41;94223.44;4982687;28;20042;-88
2022/12/19 05:28:42;;;;;;;2.17;1.98;;;;;;;14.42;41.84;94234.47;5006857;28;20049;-88
2022/12/19 05:31:13;;;;;;;48.80;42.55;;;;;;;14.39;42.01;94217.81;4991332;28;20042;-86
2022/12/19 05:33:39;;;;;;;5.03;2.75;;;;;;;14.38;41.37;94219.03;4977960;28;20057;-89
2022/12/19 05:36:05;;;;;;;7.40;4.82;;;;;;;14.38;40.83;94213.59;4971391;28;20467;-89
2022/12/19 05:38:30;;;;;;;14.98;11.82;;;;;;;14.47;41.05;94231.88;4971267;28;20038;-88
2022/12/19 05:40:55;;;;;;;9.70;6.88;;;;;;;14.47;41.33;94234.59;4987860;28;20070;-92
2022/12/19 05:43:22;;;;;;;23.98;15.10;;;;;;;14.46;41.94;94229.59;4971582;28;20065;-90
2022/12/19 05:45:47;;;;;;;11.68;6.35;;;;;;;14.50;42.09;94217.34;5020232;28;20583;-89
2022/12/19 05:48:13;;;;;;;10.40;6.47;;;;;;;14.49;41.98;94226.72;4988440;28;20034;-89
2022/12/19 05:50:38;;;;;;;10.70;5.85;;;;;;;14.52;41.48;94217.59;4978129;28;20125;-90
2022/12/19 05:53:05;;;;;;;19.63;5.90;;;;;;;14.50;42.08;94217.34;5009074;28;20042;-92
2022/12/19 05:55:30;;;;;;;9.55;5.78;;;;;;;14.46;41.79;94205.88;4954473;28;20046;-91
2022/12/19 05:57:57;;;;;;;14.30;5.55;;;;;;;14.47;41.93;94214.78;5034949;28;20061;-92
2022/12/19 06:00:22;;;;;;;29.70;9.50;;;;;;;14.44;41.41;94210.28;4993926;28;20453;-92
2022/12/19 06:02:50;;;;;;;24.85;9.85;;;;;;;14.24;36.72;94206.16;5025142;28;20409;-92
2022/12/19 06:05:16;;;;;;;25.35;9.18;;;;;;;14.27;39.60;94228.97;5025889;28;20046;-94
2022/12/19 06:07:43;;;;;;;35.47;10.77;;;;;;;14.38;38.67;94257.13;5037069;28;20115;-94
2022/12/19 06:10:10;;;;;;;38.67;12.95;;;;;;;14.37;38.91;94274.66;4973459;28;20038;-93
2022/12/19 06:12:35;;;;;;;27.80;8.63;;;;;;;14.38;40.38;94270.72;4950590;28;20099;-93
2022/12/19 06:15:01;;;;;;;15.10;7.05;;;;;;;14.51;40.80;94277.91;4985754;28;20047;-92
2022/12/19 06:17:26;;;;;;;24.05;8.85;;;;;;;14.45;40.61;94271.63;4991706;28;20066;-93
2022/12/19 06:19:52;;;;;;;25.05;9.63;;;;;;;14.46;40.92;94273.13;4964314;28;20046;-90
2022/12/19 06:22:17;;;;;;;22.92;8.43;;;;;;;14.49;41.24;94262.09;4968144;28;20038;-92
2022/12/19 06:24:43;;;;;;;34.05;9.65;;;;;;;14.46;41.32;94298.38;4974320;28;20061;-90
2022/12/19 06:27:27;;;;;;;61.70;19.17;;;;;;;14.48;41.33;94316.94;4968695;28;20061;-93
2022/12/19 06:29:52;;;;;;;58.58;24.98;;;;;;;14.54;40.95;94312.34;4968538;28;20050;-91
2022/12/19 06:32:18;;;;;;;48.85;21.33;;;;;;;14.49;41.05;94324.66;4961906;28;20100;-92
2022/12/19 06:34:43;;;;;;;76.70;35.70;;;;;;;14.51;41.17;94318.72;4966497;28;20046;-91
2022/12/19 06:37:08;;;;;;;97.25;45.78;;;;;;;14.46;41.16;94317.41;4978112;28;20046;-90
2022/12/19 06:39:35;;;;;;;169.00;89.03;;;;;;;14.45;39.43;94309.72;4996302;28;20432;-90
2022/12/19 06:44:45;;;;;;;126.30;61.72;;;;;;;14.43;40.09;94312.13;5010042;28;20176;-91
2022/12/19 06:47:11;;;;;;;183.90;82.10;;;;;;;14.51;40.05;94319.47;5027176;28;20038;-94
2022/12/19 06:49:36;;;;;;;176.43;83.95;;;;;;;14.50;40.92;94311.81;5006250;28;20042;-92
2022/12/19 06:52:02;;;;;;;166.55;78.93;;;;;;;14.42;41.13;94318.78;4986044;28;20042;-92
2022/12/19 06:54:27;;;;;;;171.90;86.55;;;;;;;14.48;40.77;94322.41;5012339;28;20035;-91
2022/12/19 06:56:53;;;;;;;169.90;81.80;;;;;;;14.46;41.34;94327.53;5022551;28;20114;-92
2022/12/19 06:59:25;;;;;;;160.88;77.10;;;;;;;14.51;41.06;94322.19;4994850;28;20114;-94
2022/12/19 07:02:00;;;;;;;148.30;75.22;;;;;;;14.46;41.31;94313.94;4997299;28;20030;-93
2022/12/19 07:04:31;;;;;;;146.68;71.57;;;;;;;14.48;40.89;94315.00;4962303;28;20102;-95
2022/12/19 07:06:56;;;;;;;136.38;70.40;;;;;;;14.60;41.44;94326.84;5007580;28;20031;-93
2022/12/19 07:09:22;;;;;;;135.38;66.57;;;;;;;14.63;40.84;94315.78;4971518;28;20049;-92
2022/12/19 07:11:47;;;;;;;114.30;61.15;;;;;;;14.62;40.87;94327.88;5003398;28;20054;-93
2022/12/19 07:14:13;;;;;;;140.55;81.72;;;;;;;14.69;41.78;94329.50;5002641;28;20050;-90
2022/12/19 07:16:39;;;;;;;124.13;59.88;;;;;;;14.62;41.05;94351.63;4991547;28;20046;-96
2022/12/19 07:19:07;;;;;;;117.47;59.28;;;;;;;14.63;40.93;94353.88;5008662;28;20041;-91
2022/12/19 07:21:33;;;;;;;106.45;59.03;;;;;;;14.64;40.67;94352.66;4983785;28;20054;-93
2022/12/19 07:23:58;;;;;;;162.02;100.55;;;;;;;14.65;40.84;94353.41;5047524;28;20043;-90
2022/12/19 07:26:30;;;;;;;113.20;56.33;;;;;;;14.64;40.76;94368.25;5014728;28;20043;-93
2022/12/19 07:28:56;;;;;;;106.43;55.92;;;;;;;14.58;41.11;94387.16;5043725;28;20038;-94
2022/12/19 07:31:22;;;;;;;104.97;52.30;;;;;;;14.58;41.12;94370.09;4987545;28;20051;-92
2022/12/19 07:33:47;;;;;;;125.28;55.95;;;;;;;14.53;41.25;94381.59;5003972;28;20042;-91
2022/12/19 07:36:13;;;;;;;107.70;51.60;;;;;;;14.60;41.14;94408.47;5014638;28;20043;-90
2022/12/19 07:38:38;;;;;;;92.43;49.80;;;;;;;14.58;41.39;94389.13;5014247;28;20113;-91
2022/12/19 07:41:04;;;;;;;98.50;50.80;;;;;;;14.57;41.60;94372.03;4995871;28;20043;-89
2022/12/19 07:43:30;;;;;;;96.03;48.67;;;;;;;14.65;41.23;94381.38;4992716;28;20043;-92
2022/12/19 07:45:56;;;;;;;80.55;46.95;;;;;;;14.63;41.38;94389.25;4994867;28;20042;-92
2022/12/19 07:48:21;;;;;;;98.93;56.05;;;;;;;14.61;41.36;94382.75;4995761;28;20039;-94
2022/12/19 07:50:47;;;;;;;110.55;58.25;;;;;;;14.63;41.35;94385.78;4997569;28;20046;-92
2022/12/19 07:53:16;;;;;;;130.75;69.88;;;;;;;14.63;41.31;94391.97;5006653;28;20043;-93
2022/12/19 07:55:41;;;;;;;135.23;60.95;;;;;;;14.72;41.18;94394.63;5006825;28;20109;-94
2022/12/19 07:58:09;;;;;;;217.45;105.53;;;;;;;14.65;41.38;94389.56;5035900;28;20089;-91
2022/12/19 08:00:36;;;;;;;158.75;78.20;;;;;;;14.53;38.41;94384.31;4987161;28;20039;-92
2022/12/19 08:03:01;;;;;;;146.43;75.20;;;;;;;14.55;38.90;94398.22;4987360;28;20102;-92
2022/12/19 08:05:27;;;;;;;169.63;84.28;;;;;;;14.61;39.16;94394.41;5016946;28;20050;-94
2022/12/19 08:07:52;;;;;;;190.73;92.00;;;;;;;14.58;39.45;94383.69;5005154;28;20050;-93
2022/12/19 08:10:21;;;;;;;163.85;82.20;;;;;;;14.65;40.16;94386.06;4988596;28;20043;-90
2022/12/19 08:12:46;;;;;;;203.27;103.15;;;;;;;14.69;40.64;94367.63;5000342;28;20384;-92
2022/12/19 08:15:14;;;;;;;158.05;83.50;;;;;;;14.66;41.14;94355.69;5004519;28;20465;-92
2022/12/19 08:17:39;;;;;;;180.98;90.35;;;;;;;14.69;41.03;94381.22;4999790;28;20063;-92
2022/12/19 08:20:06;;;;;;;166.90;92.35;;;;;;;14.64;40.80;94373.69;4993953;28;20089;-90
2022/12/19 08:22:31;;;;;;;181.63;93.53;;;;;;;14.68;40.71;94368.81;5017478;28;20057;-91
2022/12/19 08:24:57;;;;;;;167.00;89.30;;;;;;;14.67;41.07;94365.34;5000965;28;20043;-93
2022/12/19 08:27:22;;;;;;;173.07;96.78;;;;;;;14.70;40.77;94366.41;5002654;28;20262;-91
2022/12/19 08:29:48;;;;;;;173.77;94.65;;;;;;;14.64;40.82;94346.47;5002392;28;20149;-91
2022/12/19 08:32:14;;;;;;;177.45;92.95;;;;;;;14.69;40.77;94349.31;5005504;28;20055;-90
2022/12/19 08:34:39;;;;;;;186.15;98.18;;;;;;;14.63;41.36;94320.47;4963894;28;20598;-91
2022/12/19 08:37:05;;;;;;;196.05;102.20;;;;;;;14.66;40.73;94295.81;4987020;28;20187;-92
2022/12/19 08:39:32;;;;;;;207.27;111.13;;;;;;;14.65;41.00;94290.84;4971123;28;20041;-91
2022/12/19 08:41:58;;;;;;;215.52;115.13;;;;;;;14.68;41.05;94279.78;4999880;28;20093;-91
2022/12/19 08:44:23;;;;;;;203.02;104.32;;;;;;;14.66;40.72;94276.00;5008482;28;20066;-91
2022/12/19 08:46:49;;;;;;;264.27;138.40;;;;;;;14.62;40.97;94268.03;5031860;28;20047;-91
2022/12/19 08:49:14;;;;;;;263.67;146.38;;;;;;;14.68;41.11;94271.59;4984533;28;20038;-89
2022/12/19 08:51:40;;;;;;;253.18;137.45;;;;;;;14.63;40.92;94279.66;5007446;28;20053;-91
2022/12/19 08:54:05;;;;;;;258.80;145.27;;;;;;;14.63;41.41;94296.72;5020252;28;20050;-90
2022/12/19 08:56:31;;;;;;;258.05;137.93;;;;;;;14.73;40.60;94332.78;5002988;28;20564;-90
2022/12/19 08:58:57;;;;;;;258.10;142.40;;;;;;;14.73;40.95;94322.66;4984331;28;20042;-89
2022/12/19 09:01:22;;;;;;;260.58;139.23;;;;;;;14.77;40.89;94317.03;5002642;28;20065;-90
2022/12/19 09:03:48;;;;;;;249.70;138.40;;;;;;;14.71;41.05;94338.72;4998845;28;20071;-90
2022/12/19 09:06:14;;;;;;;248.30;133.65;;;;;;;14.68;41.24;94339.66;5002861;28;20046;-89
2022/12/19 09:08:40;;;;;;;261.40;135.02;;;;;;;14.71;40.99;94332.53;5002325;28;20442;-90
2022/12/19 09:11:07;;;;;;;243.52;130.20;;;;;;;14.76;41.26;94345.47;5004653;28;20062;-89
2022/12/19 09:13:33;;;;;;;232.23;125.65;;;;;;;14.81;40.81;94346.81;5007749;28;20043;-91
2022/12/19 09:16:13;;;;;;;241.90;130.27;;;;;;;14.79;40.92;94349.22;5015465;28;20519;-89
2022/12/19 09:18:39;;;;;;;260.77;146.88;;;;;;;14.80;41.15;94345.31;5000724;28;20039;-90
2022/12/19 09:21:05;;;;;;;268.98;142.18;;;;;;;14.77;41.17;94344.25;4969901;28;20042;-91
2022/12/19 09:23:31;;;;;;;248.45;131.85;;;;;;;14.81;40.54;94358.44;4970625;28;20506;-90
2022/12/19 09:26:03;;;;;;;322.50;181.43;;;;;;;14.79;41.08;94358.16;4985692;28;20066;-90
2022/12/19 09:28:29;;;;;;;271.27;145.98;;;;;;;14.82;41.41;94353.75;5001524;28;20049;-90
2022/12/19 09:31:00;;;;;;;273.85;148.82;;;;;;;14.82;41.17;94359.94;4985036;28;20046;-91
2022/12/19 09:33:25;;;;;;;284.67;153.68;;;;;;;14.83;40.92;94363.44;5003528;28;20070;-90
2022/12/19 09:35:53;;;;;;;268.85;143.10;;;;;;;14.81;41.19;94363.13;5029188;28;20061;-90
2022/12/19 09:38:19;;;;;;;263.77;143.18;;;;;;;14.84;41.08;94362.97;4984446;28;20080;-90
2022/12/19 09:40:56;;;;;;;236.23;130.27;;;;;;;14.83;41.22;94361.47;5018003;28;20549;-90
2022/12/19 09:43:40;;;;;;;232.73;129.10;;;;;;;14.84;41.13;94367.66;4969953;28;20047;-90
2022/12/19 09:46:10;;;;;;;245.15;135.13;;;;;;;14.79;41.23;94365.56;5001457;28;20046;-89
2022/12/19 09:48:36;;;;;;;240.57;137.32;;;;;;;14.78;40.99;94358.63;5022406;28;21279;-89
2022/12/19 09:51:04;;;;;;;254.15;140.35;;;;;;;14.80;41.38;94358.91;5001342;28;20050;-88
2022/12/19 09:53:56;;;;;;;255.27;141.80;;;;;;;14.79;41.40;94363.59;5029587;28;20042;-90
2022/12/19 09:56:21;;;;;;;259.48;140.07;;;;;;;14.74;41.22;94364.97;4999712;28;20421;-89
2022/12/19 09:58:48;;;;;;;247.23;139.18;;;;;;;14.83;41.29;94353.28;4983717;28;20031;-90
2022/12/19 10:01:23;;;;;;;257.73;143.40;;;;;;;14.86;41.44;94349.66;4985397;28;20507;-93
2022/12/19 10:04:02;;;;;;;233.65;134.32;;;;;;;14.85;41.10;94350.09;5012900;28;20038;-90
2022/12/19 10:06:27;;;;;;;233.43;134.95;;;;;;;14.83;41.37;94342.41;5001407;28;20049;-91
2022/12/19 10:08:53;;;;;;;237.77;130.07;;;;;;;14.88;41.03;94343.75;5001590;28;20130;-90
2022/12/19 10:11:33;;;;;;;213.60;120.93;;;;;;;14.88;41.34;94344.50;4996650;28;20081;-90
2022/12/19 10:14:17;;;;;;;224.60;124.20;;;;;;;14.88;41.36;94336.31;5003427;28;20422;-90
2022/12/19 10:17:01;;;;;;;205.45;117.10;;;;;;;14.83;41.12;94320.63;4971293;28;20054;-90
2022/12/19 10:19:41;;;;;;;204.98;115.47;;;;;;;14.86;41.30;94330.59;5000836;28;20045;-92
2022/12/19 10:22:29;;;;;;;187.95;113.90;;;;;;;14.88;41.53;94321.97;4970183;28;20050;-91
2022/12/19 10:24:59;;;;;;;274.38;147.45;;;;;;;14.94;41.23;94322.84;4980000;28;20055;-90
2022/12/19 10:27:43;;;;;;;219.98;121.45;;;;;;;14.90;41.52;94323.00;5008836;28;20114;-90
2022/12/19 10:30:14;;;;;;;230.38;125.53;;;;;;;14.91;41.57;94313.63;5020496;28;20043;-90
2022/12/19 10:33:01;;;;;;;231.45;132.30;;;;;;;14.89;41.17;94318.78;4985817;28;20046;-89
2022/12/19 10:35:31;;;;;;;272.52;138.63;;;;;;;14.88;41.79;94322.72;5000996;28;20039;-90
2022/12/19 10:38:18;;;;;;;247.45;132.82;;;;;;;14.93;41.48;94316.63;4986547;28;20035;-89
2022/12/19 10:40:51;;;;;;;245.43;131.25;;;;;;;14.96;41.15;94306.75;5015646;28;20070;-91
2022/12/19 10:43:53;;;;;;;238.32;132.13;;;;;;;14.97;41.40;94311.75;5002735;28;20050;-91
2022/12/19 10:46:37;;;;;;;251.48;133.48;;;;;;;14.93;41.39;94322.06;4968184;28;20039;-90
2022/12/19 10:49:16;;;;;;;240.27;133.05;;;;;;;14.94;41.66;94325.56;4991874;28;20042;-93
2022/12/19 10:51:52;;;;;;;236.02;127.90;;;;;;;14.97;41.17;94325.34;5000222;28;20356;-90
2022/12/19 10:54:18;;;;;;;260.90;145.05;;;;;;;14.96;41.36;94323.84;5002362;28;20051;-90
2022/12/19 10:56:43;;;;;;;251.60;141.80;;;;;;;14.95;41.10;94311.44;5020849;28;20144;-92
2022/12/19 10:59:16;;;;;;;236.35;132.63;;;;;;;14.93;41.38;94307.72;5002743;28;20382;-91
2022/12/19 11:01:41;;;;;;;253.80;138.20;;;;;;;14.91;41.69;94299.25;5021972;28;20043;-89
2022/12/19 11:04:22;;;;;;;245.68;136.02;;;;;;;14.89;41.89;94293.53;4971266;28;20038;-91
2022/12/19 11:07:18;;;;;;;251.48;148.65;;;;;;;14.89;41.78;94297.00;5013842;28;20104;-94
2022/12/19 11:09:46;;;;;;;293.45;162.45;;;;;;;14.87;41.77;94291.28;4977562;28;20053;-87
2022/12/19 11:12:14;;;;;;;279.45;159.48;;;;;;;14.89;41.67;94290.81;4968295;28;20038;-89
2022/12/19 11:14:41;;;;;;;261.75;149.23;;;;;;;14.93;41.53;94302.28;4969431;28;20042;-88
2022/12/19 11:17:25;;;;;;;266.92;150.95;;;;;;;14.95;41.63;94303.28;4999697;28;20039;-88
2022/12/19 11:19:51;;;;;;;252.30;143.68;;;;;;;14.91;41.57;94313.63;4968159;28;20066;-87
2022/12/19 11:22:27;;;;;;;241.52;138.70;;;;;;;14.91;41.88;94296.53;5000199;28;20085;-87
2022/12/19 11:24:53;;;;;;;232.27;134.10;;;;;;;14.90;41.81;94293.06;4981786;28;20085;-87
2022/12/19 11:27:41;;;;;;;223.18;127.30;;;;;;;14.91;41.65;94286.41;4988419;28;20456;-87
2022/12/19 11:30:14;;;;;;;258.52;159.38;;;;;;;14.87;41.69;94293.22;4995608;28;20042;-88
2022/12/19 11:32:43;;;;;;;195.95;114.38;;;;;;;14.94;41.83;94292.88;4999467;28;20070;-87